首页
METAR-TAF:

METAR-TAF

机场 :

文尼察, 乌克兰

纬度: 49-14-23N, 经度: 028-36-50E, 海拔: 974米

当前天气观测

该预报发布于25分钟前的09:00 UTC
风速12节,风向,在东南南转西南之间变化
温度 -2°C
湿度 93%
气压 1029 hPa
能見度: 4600
阴天层高于400英尺
轻雾

METAR: UKWW 180900Z 18006MPS 140V200 4600 BR OVC004 M02/M03 Q1029 NOSIG

时间: 11:25 (09:25 UTC)

预报

该预报发布于1小时和15分钟前的08:10 UTC
预报有效从18日的 09点(UTC)到 18日的 18点(UTC)
风速10节,风向
能見度: 3000
阴天层高于400英尺
轻雾

TAF: UKWW 180810Z 1809/1818 18005MPS 3000 BR OVC004 TX03/1812Z TNM02/1818Z

超过4000个机场的气象观测和天气预报(METAR&TAF报告)。

可查询的气象台以黄色和红色小点在地图上表示。

将鼠标移到小点上方,可查看气象台名称。

然后点击查看天气观测和预报。

如需切换地图:点击带黑十字的绿色按钮放大地图;点击带横线的绿色按钮缩小地图;或者点击绿色箭头查看邻近地区的地图。


METAR-TAF: